createdAt,value
2017-07-18T00:01:08.584Z,14.00
2017-07-18T00:03:36.133Z,14.00
2017-07-18T00:06:03.710Z,14.00
2017-07-18T00:08:31.346Z,14.00
2017-07-18T00:10:58.915Z,14.00
2017-07-18T00:13:26.507Z,14.00
2017-07-18T00:15:54.858Z,13.90
2017-07-18T00:18:22.440Z,13.90
2017-07-18T00:20:50.006Z,13.80
2017-07-18T00:23:18.337Z,13.70
2017-07-18T00:25:45.894Z,13.70
2017-07-18T00:28:13.475Z,13.80
2017-07-18T00:30:41.055Z,13.70
2017-07-18T00:33:08.621Z,13.70
2017-07-18T00:35:36.218Z,13.60
2017-07-18T00:38:03.790Z,13.50
2017-07-18T00:40:31.375Z,13.50
2017-07-18T00:42:58.986Z,13.60
2017-07-18T00:45:26.574Z,13.50
2017-07-18T00:47:54.144Z,13.50
2017-07-18T00:50:21.754Z,13.50
2017-07-18T00:52:49.334Z,13.50
2017-07-18T00:55:17.660Z,13.40
2017-07-18T00:57:45.209Z,13.40
2017-07-18T01:00:12.778Z,13.30
2017-07-18T01:02:40.342Z,13.30
2017-07-18T01:05:07.927Z,13.20
2017-07-18T01:07:35.530Z,13.20
2017-07-18T01:10:03.103Z,13.20
2017-07-18T01:12:30.691Z,13.10
2017-07-18T01:14:58.253Z,13.10
2017-07-18T01:17:25.818Z,13.10
2017-07-18T01:19:53.411Z,13.10
2017-07-18T01:22:21.810Z,13.00
2017-07-18T01:24:49.391Z,13.00
2017-07-18T01:27:16.980Z,12.90
2017-07-18T01:29:44.545Z,12.90
2017-07-18T01:32:12.128Z,12.90
2017-07-18T01:34:40.482Z,12.90
2017-07-18T01:37:08.066Z,12.90
2017-07-18T01:39:36.395Z,12.80
2017-07-18T01:42:03.978Z,12.80
2017-07-18T01:44:31.571Z,12.80
2017-07-18T01:46:59.895Z,12.80
2017-07-18T01:49:27.455Z,12.80
2017-07-18T01:51:55.027Z,12.70
2017-07-18T01:54:22.623Z,12.70
2017-07-18T01:56:50.196Z,12.70
2017-07-18T01:59:18.509Z,12.60
2017-07-18T02:01:46.061Z,12.60
2017-07-18T02:04:13.645Z,12.50
2017-07-18T02:06:41.203Z,12.50
2017-07-18T02:09:08.761Z,12.50
2017-07-18T02:11:36.360Z,12.40
2017-07-18T02:14:03.928Z,12.40
2017-07-18T02:16:31.759Z,12.40
2017-07-18T02:18:59.324Z,12.50
2017-07-18T02:21:26.882Z,12.40
2017-07-18T02:23:54.481Z,12.40
2017-07-18T02:26:22.806Z,12.50
2017-07-18T02:28:50.365Z,12.50
2017-07-18T02:31:17.942Z,12.50
2017-07-18T02:33:45.529Z,12.40
2017-07-18T02:36:13.100Z,12.40
2017-07-18T02:38:40.709Z,12.30
2017-07-18T02:41:08.311Z,12.20
2017-07-18T02:43:35.879Z,12.30
2017-07-18T02:46:03.448Z,12.30
2017-07-18T02:48:31.795Z,12.20
2017-07-18T02:50:59.439Z,12.20
2017-07-18T02:53:27.003Z,12.20
2017-07-18T02:55:54.582Z,12.10
2017-07-18T02:58:23.307Z,12.20
2017-07-18T03:00:51.645Z,12.10
2017-07-18T03:03:19.226Z,12.10
2017-07-18T03:05:46.935Z,12.10
2017-07-18T03:08:14.518Z,12.10
2017-07-18T03:10:42.270Z,12.10
2017-07-18T03:13:09.894Z,12.20
2017-07-18T03:15:38.223Z,12.00
2017-07-18T03:18:05.782Z,12.00
2017-07-18T03:20:33.486Z,12.00
2017-07-18T03:23:01.049Z,11.90
2017-07-18T03:25:28.609Z,11.90
2017-07-18T03:27:56.973Z,11.90
2017-07-18T03:30:24.538Z,11.90
2017-07-18T03:32:52.099Z,11.90
2017-07-18T03:35:19.692Z,11.90
2017-07-18T03:37:47.268Z,11.90
2017-07-18T03:40:14.824Z,11.90
2017-07-18T03:42:42.392Z,11.90
2017-07-18T03:45:10.005Z,11.90
2017-07-18T03:47:37.556Z,12.00
2017-07-18T03:50:05.134Z,12.00
2017-07-18T03:52:32.706Z,12.00
2017-07-18T03:55:00.283Z,12.00
2017-07-18T03:57:27.931Z,11.90
2017-07-18T03:59:56.262Z,12.00
2017-07-18T04:02:23.850Z,12.00
2017-07-18T04:04:51.415Z,12.10
2017-07-18T04:07:18.978Z,12.10
2017-07-18T04:09:46.556Z,12.10
2017-07-18T04:12:14.112Z,12.10
2017-07-18T04:14:42.434Z,13.10
2017-07-18T04:17:10.119Z,13.00
2017-07-18T04:19:37.685Z,14.30
2017-07-18T04:22:05.247Z,15.50
2017-07-18T04:24:32.837Z,16.70
2017-07-18T04:27:01.155Z,18.80
2017-07-18T04:29:28.717Z,18.80
2017-07-18T04:31:56.305Z,19.80
2017-07-18T04:34:23.966Z,20.90
2017-07-18T04:36:51.626Z,21.90
2017-07-18T04:39:19.214Z,22.70
2017-07-18T04:41:46.790Z,23.50
2017-07-18T04:44:14.364Z,24.10
2017-07-18T04:46:41.932Z,24.70
2017-07-18T04:49:09.516Z,24.90
2017-07-18T04:51:37.088Z,25.00
2017-07-18T04:54:04.657Z,25.30
2017-07-18T04:56:32.328Z,25.40
2017-07-18T04:58:59.897Z,25.80
2017-07-18T05:01:27.451Z,27.00
2017-07-18T05:03:55.102Z,28.00
2017-07-18T05:06:22.671Z,28.70
2017-07-18T05:08:50.243Z,29.30
2017-07-18T05:11:17.830Z,29.40
2017-07-18T05:13:46.145Z,29.60
2017-07-18T05:16:13.759Z,29.60
2017-07-18T05:18:42.103Z,30.10
2017-07-18T05:21:09.661Z,30.10
2017-07-18T05:23:37.265Z,29.80
2017-07-18T05:26:04.858Z,30.00
2017-07-18T05:28:33.135Z,30.40
2017-07-18T05:31:00.693Z,31.10
2017-07-18T05:33:28.290Z,31.30
2017-07-18T05:35:55.845Z,30.80
2017-07-18T05:38:23.445Z,31.30
2017-07-18T05:40:51.769Z,31.40
2017-07-18T05:43:19.431Z,31.40
2017-07-18T05:45:47.006Z,31.20
2017-07-18T05:48:14.593Z,31.10
2017-07-18T05:50:42.159Z,31.90
2017-07-18T05:53:09.738Z,32.00
2017-07-18T05:55:38.058Z,32.10
2017-07-18T05:58:05.618Z,32.10
2017-07-18T06:00:33.350Z,33.10
2017-07-18T06:03:00.951Z,33.60
2017-07-18T06:05:28.505Z,34.60
2017-07-18T06:07:56.112Z,33.70
2017-07-18T06:10:23.682Z,34.10
2017-07-18T06:12:52.003Z,31.50
2017-07-18T06:15:19.583Z,31.50
2017-07-18T06:17:47.271Z,30.70
2017-07-18T06:20:14.830Z,29.60
2017-07-18T06:22:42.398Z,30.20
2017-07-18T06:25:10.747Z,31.70
2017-07-18T06:27:38.297Z,31.60
2017-07-18T06:30:05.888Z,32.40
2017-07-18T06:32:33.468Z,33.40
2017-07-18T06:35:01.827Z,34.10
2017-07-18T06:37:29.399Z,34.10
2017-07-18T06:39:57.731Z,34.00
2017-07-18T06:42:25.302Z,34.00
2017-07-18T06:44:53.694Z,33.50
2017-07-18T06:47:21.270Z,33.40
2017-07-18T06:49:48.845Z,34.40
2017-07-18T06:52:17.167Z,36.00
2017-07-18T06:54:44.773Z,35.90
2017-07-18T06:57:12.330Z,36.20
2017-07-18T06:59:39.899Z,35.70
2017-07-18T07:02:07.470Z,36.10
2017-07-18T07:04:36.410Z,36.30
2017-07-18T07:07:04.268Z,36.20
2017-07-18T07:09:31.829Z,36.60
2017-07-18T07:11:59.402Z,37.80
2017-07-18T07:14:27.006Z,38.30
2017-07-18T07:16:55.431Z,38.00
2017-07-18T07:19:23.019Z,38.00
2017-07-18T07:21:50.678Z,37.50
2017-07-18T07:24:18.254Z,37.50
2017-07-18T07:26:45.826Z,36.50
2017-07-18T07:29:13.378Z,36.60
2017-07-18T07:31:40.961Z,36.50
2017-07-18T07:34:08.538Z,36.70
2017-07-18T07:36:36.141Z,36.50
2017-07-18T07:39:03.691Z,36.00
2017-07-18T07:41:31.250Z,35.70
2017-07-18T07:43:58.864Z,35.00
2017-07-18T07:46:27.183Z,35.50
2017-07-18T07:48:54.898Z,35.50
2017-07-18T07:51:22.474Z,36.10
2017-07-18T07:53:50.047Z,36.00
2017-07-18T07:56:17.655Z,36.20
2017-07-18T07:58:45.217Z,36.40
2017-07-18T08:01:12.814Z,36.00
2017-07-18T08:03:41.157Z,36.40
2017-07-18T08:06:08.746Z,36.40
2017-07-18T08:08:36.290Z,36.30
2017-07-18T08:11:03.864Z,36.30
2017-07-18T08:13:31.811Z,36.40
2017-07-18T08:15:59.397Z,36.50
2017-07-18T08:18:26.954Z,35.70
2017-07-18T08:20:54.706Z,36.00
2017-07-18T08:23:22.265Z,36.90
2017-07-18T08:25:49.822Z,36.70
2017-07-18T08:28:18.377Z,36.70
2017-07-18T08:30:45.941Z,37.00
2017-07-18T08:33:13.489Z,36.80
2017-07-18T08:35:41.202Z,37.20
2017-07-18T08:38:08.758Z,36.80
2017-07-18T08:40:36.403Z,36.90
2017-07-18T08:43:03.957Z,36.70
2017-07-18T08:45:31.550Z,36.10
2017-07-18T08:47:59.115Z,35.90
2017-07-18T08:50:26.691Z,36.30
2017-07-18T08:52:54.300Z,36.50
2017-07-18T08:55:21.850Z,35.90
2017-07-18T08:57:49.445Z,36.30
2017-07-18T09:00:17.967Z,36.10
2017-07-18T09:02:45.524Z,35.60
2017-07-18T09:05:13.098Z,36.40
2017-07-18T09:07:40.645Z,36.40
2017-07-18T09:10:08.205Z,35.70
2017-07-18T09:12:35.862Z,35.40
2017-07-18T09:15:03.431Z,35.80
2017-07-18T09:17:30.981Z,35.60
2017-07-18T09:19:58.574Z,35.40
2017-07-18T09:22:26.135Z,35.60
2017-07-18T09:24:53.741Z,35.50
2017-07-18T09:27:21.301Z,35.80
2017-07-18T09:29:48.859Z,35.20
2017-07-18T09:32:16.458Z,33.90
2017-07-18T09:34:44.790Z,34.10
2017-07-18T09:37:12.346Z,34.00
2017-07-18T09:39:39.943Z,34.50
2017-07-18T09:42:08.278Z,35.20
2017-07-18T09:44:35.832Z,35.20
2017-07-18T09:47:03.407Z,35.20
2017-07-18T09:49:30.971Z,35.50
2017-07-18T09:51:58.558Z,35.80
2017-07-18T09:54:26.121Z,36.30
2017-07-18T09:56:53.659Z,35.50
2017-07-18T09:59:22.088Z,34.60
2017-07-18T10:01:50.594Z,33.90
2017-07-18T10:04:18.157Z,34.30
2017-07-18T10:06:45.741Z,35.10
2017-07-18T10:09:13.736Z,35.10
2017-07-18T10:11:41.742Z,35.20
2017-07-18T10:14:09.319Z,35.20
2017-07-18T10:16:36.878Z,35.10
2017-07-18T10:19:04.485Z,34.80
2017-07-18T10:21:32.043Z,34.80
2017-07-18T10:23:59.615Z,34.20
2017-07-18T10:26:27.958Z,34.30
2017-07-18T10:28:55.541Z,34.30
2017-07-18T10:31:23.106Z,34.30
2017-07-18T10:33:50.676Z,34.20
2017-07-18T10:36:18.238Z,34.60
2017-07-18T10:38:45.795Z,35.00
2017-07-18T10:41:13.367Z,35.70
2017-07-18T10:43:41.736Z,34.40
2017-07-18T10:46:09.307Z,34.40
2017-07-18T10:48:37.643Z,33.90
2017-07-18T10:51:05.230Z,33.80
2017-07-18T10:53:32.810Z,34.70
2017-07-18T10:56:02.658Z,34.40
2017-07-18T10:58:30.234Z,34.30
2017-07-18T11:00:57.821Z,34.10
2017-07-18T11:03:26.049Z,34.00
2017-07-18T11:05:53.619Z,33.50
2017-07-18T11:08:21.209Z,33.30
2017-07-18T11:10:48.865Z,33.30
2017-07-18T11:13:16.443Z,33.60
2017-07-18T11:15:44.043Z,33.20
2017-07-18T11:18:11.862Z,32.70
2017-07-18T11:20:39.458Z,32.70
2017-07-18T11:23:07.795Z,32.50
2017-07-18T11:25:35.344Z,32.50
2017-07-18T11:28:02.942Z,32.20
2017-07-18T11:30:31.225Z,32.10
2017-07-18T11:32:59.586Z,31.90
2017-07-18T11:35:27.287Z,31.80
2017-07-18T11:37:55.910Z,31.50
2017-07-18T11:40:23.538Z,31.50
2017-07-18T11:42:51.106Z,31.50
2017-07-18T11:45:18.691Z,31.70
2017-07-18T11:47:46.277Z,31.40
2017-07-18T11:50:13.835Z,31.00
2017-07-18T11:52:41.394Z,30.60
2017-07-18T11:55:08.979Z,30.20
2017-07-18T11:57:40.686Z,30.40
2017-07-18T12:00:08.307Z,30.80
2017-07-18T12:02:36.694Z,30.20
2017-07-18T12:05:05.030Z,30.30
2017-07-18T12:07:32.793Z,30.30
2017-07-18T12:10:01.252Z,30.20
2017-07-18T12:12:28.848Z,29.90
2017-07-18T12:14:56.450Z,29.90
2017-07-18T12:17:24.758Z,30.10
2017-07-18T12:19:52.349Z,30.10
2017-07-18T12:22:19.912Z,29.80
2017-07-18T12:24:47.493Z,29.70
2017-07-18T12:27:15.834Z,29.50
2017-07-18T12:29:43.402Z,29.40
2017-07-18T12:32:11.622Z,29.30
2017-07-18T12:34:39.981Z,28.90
2017-07-18T12:37:07.528Z,28.90
2017-07-18T12:39:35.094Z,29.10
2017-07-18T12:42:02.758Z,29.00
2017-07-18T12:44:30.322Z,28.90
2017-07-18T12:46:57.882Z,29.00
2017-07-18T12:49:25.471Z,29.10
2017-07-18T12:51:53.866Z,29.00
2017-07-18T12:54:21.459Z,29.00
2017-07-18T12:56:49.050Z,29.10
2017-07-18T12:59:16.651Z,29.10
2017-07-18T13:01:44.254Z,28.90
2017-07-18T13:04:11.821Z,28.70
2017-07-18T13:06:39.390Z,28.60
2017-07-18T13:09:07.615Z,28.70
2017-07-18T13:11:35.173Z,28.70
2017-07-18T13:14:03.126Z,28.70
2017-07-18T13:16:31.487Z,28.80
2017-07-18T13:18:59.046Z,28.80
2017-07-18T13:21:26.606Z,28.80
2017-07-18T13:23:54.269Z,28.80
2017-07-18T13:26:21.826Z,28.90
2017-07-18T13:28:49.407Z,29.00
2017-07-18T13:31:17.743Z,28.80
2017-07-18T13:33:45.340Z,28.80
2017-07-18T13:36:12.891Z,28.70
2017-07-18T13:38:40.478Z,28.90
2017-07-18T13:41:08.807Z,28.70
2017-07-18T13:43:36.447Z,28.70
2017-07-18T13:46:04.633Z,28.60
2017-07-18T13:48:32.182Z,28.60
2017-07-18T13:50:59.758Z,28.90
2017-07-18T13:53:27.346Z,28.90
2017-07-18T13:55:54.933Z,28.90
2017-07-18T13:58:22.505Z,28.90
2017-07-18T14:00:50.073Z,28.90
2017-07-18T14:03:17.761Z,28.90
2017-07-18T14:05:45.410Z,29.00
2017-07-18T14:08:12.985Z,28.90
2017-07-18T14:10:41.481Z,28.70
2017-07-18T14:13:09.042Z,28.70
2017-07-18T14:15:37.565Z,28.60
2017-07-18T14:18:05.906Z,28.60
2017-07-18T14:20:33.474Z,28.60
2017-07-18T14:23:01.064Z,28.50
2017-07-18T14:25:29.441Z,28.40
2017-07-18T14:27:57.821Z,28.40
2017-07-18T14:30:26.202Z,28.40
2017-07-18T14:32:54.524Z,28.40
2017-07-18T14:35:22.091Z,28.40
2017-07-18T14:37:49.688Z,28.50
2017-07-18T14:40:18.065Z,28.30
2017-07-18T14:42:45.644Z,28.20
2017-07-18T14:45:14.001Z,28.10
2017-07-18T14:47:41.601Z,28.10
2017-07-18T14:50:09.199Z,28.20
2017-07-18T14:52:36.755Z,28.20
2017-07-18T14:55:04.348Z,28.10
2017-07-18T14:57:31.901Z,28.10
2017-07-18T14:59:59.502Z,28.00
2017-07-18T15:02:27.064Z,28.10
2017-07-18T15:04:55.001Z,28.10
2017-07-18T15:07:23.127Z,28.20
2017-07-18T15:09:50.677Z,28.20
2017-07-18T15:12:18.261Z,28.20
2017-07-18T15:14:45.852Z,28.30
2017-07-18T15:17:13.431Z,28.20
2017-07-18T15:19:41.766Z,28.30
2017-07-18T15:22:09.338Z,28.30
2017-07-18T15:24:36.955Z,28.10
2017-07-18T15:27:05.298Z,28.00
2017-07-18T15:29:32.886Z,28.00
2017-07-18T15:32:01.214Z,28.10
2017-07-18T15:34:28.793Z,28.10
2017-07-18T15:36:56.437Z,28.20
2017-07-18T15:39:24.037Z,28.10
2017-07-18T15:41:52.376Z,28.10
2017-07-18T15:44:19.956Z,28.00
2017-07-18T15:46:47.548Z,28.10
2017-07-18T15:49:15.899Z,28.10
2017-07-18T15:51:44.197Z,28.10
2017-07-18T15:54:11.781Z,27.90
2017-07-18T15:56:40.325Z,27.80
2017-07-18T15:59:07.896Z,27.90
2017-07-18T16:01:35.503Z,27.90
2017-07-18T16:04:03.059Z,27.80
2017-07-18T16:06:30.654Z,27.80
2017-07-18T16:08:58.257Z,27.80
2017-07-18T16:11:26.583Z,27.50
2017-07-18T16:13:54.157Z,27.50
2017-07-18T16:16:22.346Z,27.50
2017-07-18T16:18:49.905Z,27.40
2017-07-18T16:21:17.490Z,27.40
2017-07-18T16:23:46.613Z,27.40
2017-07-18T16:26:14.190Z,27.40
2017-07-18T16:28:41.770Z,27.40
2017-07-18T16:31:09.367Z,27.40
2017-07-18T16:33:37.688Z,27.40
2017-07-18T16:36:05.265Z,27.50
2017-07-18T16:38:32.895Z,27.50
2017-07-18T16:41:00.501Z,27.50
2017-07-18T16:43:28.089Z,27.50
2017-07-18T16:45:55.674Z,27.40
2017-07-18T16:48:24.163Z,27.40
2017-07-18T16:50:52.518Z,27.30
2017-07-18T16:53:20.969Z,27.20
2017-07-18T16:55:48.548Z,27.20
2017-07-18T16:58:16.157Z,27.20
2017-07-18T17:00:43.734Z,27.10
2017-07-18T17:03:11.333Z,27.00
2017-07-18T17:05:39.762Z,26.80
2017-07-18T17:08:07.354Z,26.80
2017-07-18T17:10:35.494Z,26.80
2017-07-18T17:13:03.166Z,26.80
2017-07-18T17:15:30.753Z,26.80
2017-07-18T17:17:58.308Z,26.70
2017-07-18T17:20:26.122Z,26.70
2017-07-18T17:22:53.718Z,26.60
2017-07-18T17:25:21.289Z,26.50
2017-07-18T17:27:48.852Z,26.50
2017-07-18T17:30:16.467Z,26.50
2017-07-18T17:32:44.793Z,26.40
2017-07-18T17:35:12.375Z,26.40
2017-07-18T17:37:40.826Z,26.40
2017-07-18T17:40:08.393Z,26.50
2017-07-18T17:42:36.004Z,26.50
2017-07-18T17:45:03.600Z,26.40
2017-07-18T17:47:31.165Z,26.40
2017-07-18T17:49:58.770Z,26.30
2017-07-18T17:52:26.362Z,26.30
2017-07-18T17:54:53.947Z,26.20
2017-07-18T17:57:21.572Z,26.20
2017-07-18T17:59:49.905Z,26.20
2017-07-18T18:02:17.477Z,26.20
2017-07-18T18:04:45.096Z,26.20
2017-07-18T18:07:12.651Z,26.20
2017-07-18T18:09:40.246Z,26.10
2017-07-18T18:12:07.802Z,26.00
2017-07-18T18:14:35.373Z,26.00
2017-07-18T18:17:02.972Z,26.00
2017-07-18T18:19:31.305Z,25.90
2017-07-18T18:21:58.871Z,25.90
2017-07-18T18:24:26.462Z,25.90
2017-07-18T18:26:54.102Z,25.80
2017-07-18T18:29:21.698Z,25.70
2017-07-18T18:31:49.266Z,25.60
2017-07-18T18:34:17.690Z,25.50
2017-07-18T18:36:45.278Z,25.50
2017-07-18T18:39:12.922Z,25.60
2017-07-18T18:41:40.500Z,25.50
2017-07-18T18:44:08.093Z,25.40
2017-07-18T18:46:36.433Z,25.30
2017-07-18T18:49:04.027Z,25.20
2017-07-18T18:51:32.343Z,25.10
2017-07-18T18:53:59.918Z,25.10
2017-07-18T18:56:27.523Z,25.10
2017-07-18T18:58:55.877Z,25.00
2017-07-18T19:01:23.486Z,24.90
2017-07-18T19:03:51.084Z,24.90
2017-07-18T19:06:18.683Z,24.80
2017-07-18T19:08:46.265Z,24.60
2017-07-18T19:11:13.813Z,24.50
2017-07-18T19:13:42.180Z,24.30
2017-07-18T19:16:09.749Z,24.30
2017-07-18T19:18:37.338Z,24.10
2017-07-18T19:21:04.986Z,24.10
2017-07-18T19:23:33.335Z,23.90
2017-07-18T19:26:00.935Z,23.90
2017-07-18T19:28:28.536Z,23.80
2017-07-18T19:30:56.116Z,23.80
2017-07-18T19:33:23.681Z,23.80
2017-07-18T19:35:51.302Z,23.70
2017-07-18T19:38:18.893Z,23.60
2017-07-18T19:40:46.462Z,23.60
2017-07-18T19:43:14.030Z,23.60
2017-07-18T19:45:41.593Z,23.40
2017-07-18T19:48:09.188Z,23.30
2017-07-18T19:50:36.764Z,23.20
2017-07-18T19:53:04.346Z,23.10
2017-07-18T19:55:31.974Z,23.10
2017-07-18T19:57:59.542Z,23.00
2017-07-18T20:00:27.154Z,22.90
2017-07-18T20:02:54.734Z,22.80
2017-07-18T20:05:23.043Z,22.70
2017-07-18T20:07:50.694Z,22.60
2017-07-18T20:10:18.277Z,22.60
2017-07-18T20:12:45.866Z,22.60
2017-07-18T20:15:13.438Z,22.50
2017-07-18T20:17:41.040Z,22.40
2017-07-18T20:20:08.644Z,22.40
2017-07-18T20:22:36.201Z,22.30
2017-07-18T20:25:03.772Z,22.20
2017-07-18T20:27:31.341Z,22.20
2017-07-18T20:29:58.941Z,22.10
2017-07-18T20:32:27.272Z,22.00
2017-07-18T20:34:54.846Z,21.90
2017-07-18T20:37:22.443Z,21.90
2017-07-18T20:39:50.798Z,21.80
2017-07-18T20:42:18.345Z,21.80
2017-07-18T20:44:45.919Z,21.80
2017-07-18T20:47:13.498Z,21.80
2017-07-18T20:49:42.010Z,21.70
2017-07-18T20:52:09.580Z,21.70
2017-07-18T20:54:37.165Z,21.70
2017-07-18T20:57:04.713Z,21.70
2017-07-18T20:59:32.289Z,21.70
2017-07-18T21:01:59.870Z,21.70
2017-07-18T21:04:27.458Z,21.70
2017-07-18T21:06:55.070Z,21.60
2017-07-18T21:09:22.664Z,21.60
2017-07-18T21:11:50.229Z,21.60
2017-07-18T21:14:18.599Z,21.60
2017-07-18T21:16:46.166Z,21.50
2017-07-18T21:19:13.754Z,21.50
2017-07-18T21:21:41.369Z,21.40
2017-07-18T21:24:08.974Z,21.30
2017-07-18T21:26:36.602Z,21.20
2017-07-18T21:29:04.175Z,21.20
2017-07-18T21:31:31.743Z,21.20
2017-07-18T21:34:00.109Z,21.00
2017-07-18T21:36:27.677Z,21.00
2017-07-18T21:38:55.263Z,21.00
2017-07-18T21:41:22.851Z,20.90
2017-07-18T21:43:50.418Z,20.80
2017-07-18T21:46:17.991Z,20.80
2017-07-18T21:48:45.590Z,20.80
2017-07-18T21:51:13.124Z,20.70
2017-07-18T21:53:40.706Z,20.70
2017-07-18T21:56:09.045Z,20.60
2017-07-18T21:58:36.615Z,20.60
2017-07-18T22:01:04.323Z,20.70
2017-07-18T22:03:31.894Z,20.60
2017-07-18T22:05:59.490Z,20.50
2017-07-18T22:08:27.063Z,20.50
2017-07-18T22:10:54.687Z,20.50
2017-07-18T22:13:22.266Z,20.40
2017-07-18T22:15:49.826Z,20.40
2017-07-18T22:18:17.410Z,20.40
2017-07-18T22:20:44.990Z,20.40
2017-07-18T22:23:12.550Z,20.40
2017-07-18T22:25:40.896Z,20.40
2017-07-18T22:28:08.463Z,20.40
2017-07-18T22:30:36.050Z,20.30
2017-07-18T22:33:03.639Z,20.40
2017-07-18T22:35:31.217Z,20.30
2017-07-18T22:37:58.791Z,20.30
2017-07-18T22:40:26.342Z,20.20
2017-07-18T22:42:53.927Z,20.10
2017-07-18T22:45:21.488Z,20.10
2017-07-18T22:47:49.057Z,20.10
2017-07-18T22:50:16.627Z,20.20
2017-07-18T22:52:44.670Z,20.20
2017-07-18T22:55:13.635Z,20.20
2017-07-18T22:57:41.231Z,20.10
2017-07-18T23:00:08.771Z,20.00
2017-07-18T23:02:36.378Z,19.90
2017-07-18T23:05:04.722Z,19.90
2017-07-18T23:07:32.429Z,19.90
2017-07-18T23:10:00.765Z,20.00
2017-07-18T23:12:28.329Z,20.00
2017-07-18T23:14:55.930Z,20.00
2017-07-18T23:17:23.563Z,20.10
2017-07-18T23:19:51.202Z,20.10
2017-07-18T23:22:18.798Z,20.10
2017-07-18T23:24:46.358Z,20.10
2017-07-18T23:27:13.986Z,20.20
2017-07-18T23:29:41.555Z,20.20
2017-07-18T23:32:09.109Z,20.20
2017-07-18T23:34:36.697Z,20.10
2017-07-18T23:37:04.262Z,20.00
2017-07-18T23:39:31.847Z,19.90
2017-07-18T23:42:00.186Z,19.80
2017-07-18T23:44:27.749Z,19.80
2017-07-18T23:46:55.381Z,19.80
2017-07-18T23:49:22.943Z,19.70
2017-07-18T23:51:50.497Z,19.80
2017-07-18T23:54:18.093Z,19.70
2017-07-18T23:56:45.665Z,19.70
2017-07-18T23:59:14.054Z,19.70
